sensor_id;sensor_type;location;lat;lon;timestamp;P1;durP1;ratioP1;P2;durP2;ratioP2
40871;SDS011;26591;43.264;26.940;2023-07-22T00:01:12;12.45;;;9.85;;
40871;SDS011;26591;43.264;26.940;2023-07-22T00:03:38;12.55;;;8.55;;
40871;SDS011;26591;43.264;26.940;2023-07-22T00:08:33;12.00;;;9.40;;
40871;SDS011;26591;43.264;26.940;2023-07-22T00:11:02;13.07;;;10.02;;
40871;SDS011;26591;43.264;26.940;2023-07-22T00:13:28;13.65;;;9.73;;
40871;SDS011;26591;43.264;26.940;2023-07-22T00:15:54;13.70;;;10.48;;
40871;SDS011;26591;43.264;26.940;2023-07-22T00:18:21;12.75;;;10.13;;
40871;SDS011;26591;43.264;26.940;2023-07-22T00:20:47;13.82;;;10.68;;
40871;SDS011;26591;43.264;26.940;2023-07-22T00:23:13;11.40;;;10.18;;
40871;SDS011;26591;43.264;26.940;2023-07-22T00:25:40;15.68;;;10.45;;
40871;SDS011;26591;43.264;26.940;2023-07-22T00:28:06;15.57;;;11.20;;
40871;SDS011;26591;43.264;26.940;2023-07-22T00:30:31;14.65;;;10.77;;
40871;SDS011;26591;43.264;26.940;2023-07-22T00:32:57;12.13;;;10.27;;
40871;SDS011;26591;43.264;26.940;2023-07-22T00:35:23;13.18;;;9.18;;
40871;SDS011;26591;43.264;26.940;2023-07-22T00:37:48;10.48;;;8.40;;
40871;SDS011;26591;43.264;26.940;2023-07-22T00:40:14;9.98;;;8.77;;
40871;SDS011;26591;43.264;26.940;2023-07-22T00:42:40;14.35;;;8.75;;
40871;SDS011;26591;43.264;26.940;2023-07-22T00:45:06;12.80;;;9.30;;
40871;SDS011;26591;43.264;26.940;2023-07-22T00:47:32;11.75;;;9.15;;
40871;SDS011;26591;43.264;26.940;2023-07-22T00:49:59;13.05;;;10.32;;
40871;SDS011;26591;43.264;26.940;2023-07-22T00:52:29;13.75;;;10.00;;
40871;SDS011;26591;43.264;26.940;2023-07-22T00:54:55;11.35;;;10.25;;
40871;SDS011;26591;43.264;26.940;2023-07-22T00:57:22;14.35;;;10.57;;
40871;SDS011;26591;43.264;26.940;2023-07-22T00:59:47;14.30;;;10.60;;
40871;SDS011;26591;43.264;26.940;2023-07-22T01:02:13;13.35;;;10.77;;
40871;SDS011;26591;43.264;26.940;2023-07-22T01:04:38;13.23;;;11.00;;
40871;SDS011;26591;43.264;26.940;2023-07-22T01:07:05;14.70;;;11.15;;
40871;SDS011;26591;43.264;26.940;2023-07-22T01:09:36;15.35;;;11.05;;
40871;SDS011;26591;43.264;26.940;2023-07-22T01:12:02;12.68;;;11.25;;
40871;SDS011;26591;43.264;26.940;2023-07-22T01:14:28;11.43;;;10.32;;
40871;SDS011;26591;43.264;26.940;2023-07-22T01:16:53;11.82;;;10.73;;
40871;SDS011;26591;43.264;26.940;2023-07-22T01:19:19;11.43;;;10.23;;
40871;SDS011;26591;43.264;26.940;2023-07-22T01:21:45;14.82;;;9.88;;
40871;SDS011;26591;43.264;26.940;2023-07-22T01:24:12;13.10;;;9.70;;
40871;SDS011;26591;43.264;26.940;2023-07-22T01:26:38;12.52;;;10.48;;
40871;SDS011;26591;43.264;26.940;2023-07-22T01:29:06;13.55;;;9.95;;
40871;SDS011;26591;43.264;26.940;2023-07-22T01:31:34;12.68;;;10.35;;
40871;SDS011;26591;43.264;26.940;2023-07-22T01:34:01;12.15;;;10.93;;
40871;SDS011;26591;43.264;26.940;2023-07-22T01:36:26;11.70;;;9.80;;
40871;SDS011;26591;43.264;26.940;2023-07-22T01:38:52;12.23;;;9.02;;
40871;SDS011;26591;43.264;26.940;2023-07-22T01:41:17;13.32;;;8.55;;
40871;SDS011;26591;43.264;26.940;2023-07-22T01:43:43;10.32;;;9.23;;
40871;SDS011;26591;43.264;26.940;2023-07-22T01:46:08;14.85;;;9.68;;
40871;SDS011;26591;43.264;26.940;2023-07-22T01:48:34;9.00;;;8.10;;
40871;SDS011;26591;43.264;26.940;2023-07-22T01:50:59;11.65;;;9.32;;
40871;SDS011;26591;43.264;26.940;2023-07-22T01:53:25;11.43;;;9.00;;
40871;SDS011;26591;43.264;26.940;2023-07-22T01:55:51;12.57;;;9.52;;
40871;SDS011;26591;43.264;26.940;2023-07-22T01:58:17;10.73;;;8.98;;
40871;SDS011;26591;43.264;26.940;2023-07-22T02:00:42;9.52;;;8.38;;
40871;SDS011;26591;43.264;26.940;2023-07-22T02:03:08;10.48;;;8.32;;
40871;SDS011;26591;43.264;26.940;2023-07-22T02:05:33;9.73;;;8.10;;
40871;SDS011;26591;43.264;26.940;2023-07-22T02:07:59;8.55;;;7.75;;
40871;SDS011;26591;43.264;26.940;2023-07-22T02:10:24;10.57;;;7.75;;
40871;SDS011;26591;43.264;26.940;2023-07-22T02:12:50;11.15;;;8.18;;
40871;SDS011;26591;43.264;26.940;2023-07-22T02:15:15;11.32;;;8.48;;
40871;SDS011;26591;43.264;26.940;2023-07-22T02:17:41;10.05;;;7.28;;
40871;SDS011;26591;43.264;26.940;2023-07-22T02:20:07;10.45;;;7.38;;
40871;SDS011;26591;43.264;26.940;2023-07-22T02:22:34;9.80;;;7.32;;
40871;SDS011;26591;43.264;26.940;2023-07-22T02:24:59;10.10;;;7.75;;
40871;SDS011;26591;43.264;26.940;2023-07-22T02:27:25;9.82;;;8.43;;
40871;SDS011;26591;43.264;26.940;2023-07-22T02:29:50;11.00;;;7.43;;
40871;SDS011;26591;43.264;26.940;2023-07-22T02:32:17;13.15;;;7.57;;
40871;SDS011;26591;43.264;26.940;2023-07-22T02:34:42;10.30;;;7.43;;
40871;SDS011;26591;43.264;26.940;2023-07-22T02:37:08;9.05;;;6.75;;
40871;SDS011;26591;43.264;26.940;2023-07-22T02:39:33;9.20;;;7.35;;
40871;SDS011;26591;43.264;26.940;2023-07-22T02:41:59;10.90;;;7.30;;
40871;SDS011;26591;43.264;26.940;2023-07-22T02:44:24;8.93;;;7.28;;
40871;SDS011;26591;43.264;26.940;2023-07-22T02:46:50;10.55;;;7.22;;
40871;SDS011;26591;43.264;26.940;2023-07-22T02:49:15;12.48;;;7.72;;
40871;SDS011;26591;43.264;26.940;2023-07-22T02:51:41;7.72;;;6.93;;
40871;SDS011;26591;43.264;26.940;2023-07-22T02:54:06;13.55;;;7.70;;
40871;SDS011;26591;43.264;26.940;2023-07-22T02:56:32;9.63;;;7.55;;
40871;SDS011;26591;43.264;26.940;2023-07-22T02:58:57;9.45;;;7.57;;
40871;SDS011;26591;43.264;26.940;2023-07-22T03:01:23;11.43;;;7.40;;
40871;SDS011;26591;43.264;26.940;2023-07-22T03:03:50;11.80;;;7.55;;
40871;SDS011;26591;43.264;26.940;2023-07-22T03:06:15;10.60;;;7.13;;
40871;SDS011;26591;43.264;26.940;2023-07-22T03:08:40;9.27;;;7.38;;
40871;SDS011;26591;43.264;26.940;2023-07-22T03:11:06;9.27;;;7.32;;
40871;SDS011;26591;43.264;26.940;2023-07-22T03:13:31;10.93;;;7.35;;
40871;SDS011;26591;43.264;26.940;2023-07-22T03:15:59;11.27;;;6.88;;
40871;SDS011;26591;43.264;26.940;2023-07-22T03:18:24;14.15;;;7.47;;
40871;SDS011;26591;43.264;26.940;2023-07-22T03:20:50;16.67;;;7.60;;
40871;SDS011;26591;43.264;26.940;2023-07-22T03:23:16;8.70;;;7.03;;
40871;SDS011;26591;43.264;26.940;2023-07-22T03:25:42;9.38;;;7.00;;
40871;SDS011;26591;43.264;26.940;2023-07-22T03:28:07;13.57;;;6.72;;
40871;SDS011;26591;43.264;26.940;2023-07-22T03:30:33;9.23;;;6.90;;
40871;SDS011;26591;43.264;26.940;2023-07-22T03:32:59;7.63;;;6.43;;
40871;SDS011;26591;43.264;26.940;2023-07-22T03:35:25;10.15;;;7.28;;
40871;SDS011;26591;43.264;26.940;2023-07-22T03:37:51;12.68;;;7.03;;
40871;SDS011;26591;43.264;26.940;2023-07-22T03:40:17;14.45;;;6.88;;
40871;SDS011;26591;43.264;26.940;2023-07-22T03:42:47;10.68;;;7.30;;
40871;SDS011;26591;43.264;26.940;2023-07-22T03:45:14;54.88;;;8.65;;
40871;SDS011;26591;43.264;26.940;2023-07-22T03:47:40;11.25;;;6.18;;
40871;SDS011;26591;43.264;26.940;2023-07-22T03:50:06;12.32;;;6.95;;
40871;SDS011;26591;43.264;26.940;2023-07-22T03:52:32;10.15;;;5.88;;
40871;SDS011;26591;43.264;26.940;2023-07-22T03:54:58;10.30;;;5.90;;
40871;SDS011;26591;43.264;26.940;2023-07-22T03:57:27;8.43;;;5.72;;
40871;SDS011;26591;43.264;26.940;2023-07-22T03:59:53;7.15;;;5.43;;
40871;SDS011;26591;43.264;26.940;2023-07-22T04:02:19;8.57;;;5.70;;
40871;SDS011;26591;43.264;26.940;2023-07-22T04:04:45;11.27;;;6.35;;
40871;SDS011;26591;43.264;26.940;2023-07-22T04:07:10;6.90;;;5.80;;
40871;SDS011;26591;43.264;26.940;2023-07-22T04:09:36;12.02;;;6.00;;
40871;SDS011;26591;43.264;26.940;2023-07-22T04:12:01;11.13;;;6.45;;
40871;SDS011;26591;43.264;26.940;2023-07-22T04:14:27;9.88;;;6.63;;
40871;SDS011;26591;43.264;26.940;2023-07-22T04:16:53;22.17;;;6.63;;
40871;SDS011;26591;43.264;26.940;2023-07-22T04:19:18;17.17;;;6.40;;
40871;SDS011;26591;43.264;26.940;2023-07-22T04:21:43;9.05;;;5.97;;
40871;SDS011;26591;43.264;26.940;2023-07-22T04:24:09;12.25;;;6.32;;
40871;SDS011;26591;43.264;26.940;2023-07-22T04:26:35;13.18;;;6.53;;
40871;SDS011;26591;43.264;26.940;2023-07-22T04:29:01;9.93;;;5.80;;
40871;SDS011;26591;43.264;26.940;2023-07-22T04:31:26;11.00;;;5.57;;
40871;SDS011;26591;43.264;26.940;2023-07-22T04:33:52;11.52;;;5.88;;
40871;SDS011;26591;43.264;26.940;2023-07-22T04:36:17;9.50;;;5.30;;
40871;SDS011;26591;43.264;26.940;2023-07-22T04:38:43;7.75;;;5.40;;
40871;SDS011;26591;43.264;26.940;2023-07-22T04:41:08;11.75;;;5.18;;
40871;SDS011;26591;43.264;26.940;2023-07-22T04:43:34;11.68;;;5.50;;
40871;SDS011;26591;43.264;26.940;2023-07-22T04:45:59;12.25;;;5.38;;
40871;SDS011;26591;43.264;26.940;2023-07-22T04:48:25;9.55;;;5.25;;
40871;SDS011;26591;43.264;26.940;2023-07-22T04:50:51;7.90;;;4.90;;
40871;SDS011;26591;43.264;26.940;2023-07-22T04:53:17;7.95;;;4.97;;
40871;SDS011;26591;43.264;26.940;2023-07-22T04:55:43;8.15;;;5.13;;
40871;SDS011;26591;43.264;26.940;2023-07-22T04:58:09;16.38;;;5.05;;
40871;SDS011;26591;43.264;26.940;2023-07-22T05:00:35;12.57;;;4.88;;
40871;SDS011;26591;43.264;26.940;2023-07-22T05:03:02;9.55;;;5.18;;
40871;SDS011;26591;43.264;26.940;2023-07-22T05:05:28;9.88;;;5.85;;
40871;SDS011;26591;43.264;26.940;2023-07-22T05:07:54;12.60;;;4.85;;
40871;SDS011;26591;43.264;26.940;2023-07-22T05:10:20;7.13;;;4.68;;
40871;SDS011;26591;43.264;26.940;2023-07-22T05:12:45;9.45;;;4.63;;
40871;SDS011;26591;43.264;26.940;2023-07-22T05:15:11;9.93;;;5.10;;
40871;SDS011;26591;43.264;26.940;2023-07-22T05:17:38;8.93;;;4.78;;
40871;SDS011;26591;43.264;26.940;2023-07-22T05:20:05;9.48;;;5.72;;
40871;SDS011;26591;43.264;26.940;2023-07-22T05:22:32;11.95;;;4.60;;
40871;SDS011;26591;43.264;26.940;2023-07-22T05:24:58;9.45;;;4.43;;
40871;SDS011;26591;43.264;26.940;2023-07-22T05:27:24;9.73;;;4.70;;
40871;SDS011;26591;43.264;26.940;2023-07-22T05:29:50;10.80;;;5.25;;
40871;SDS011;26591;43.264;26.940;2023-07-22T05:32:15;10.07;;;4.07;;
40871;SDS011;26591;43.264;26.940;2023-07-22T05:34:41;7.97;;;3.90;;
40871;SDS011;26591;43.264;26.940;2023-07-22T05:37:08;8.32;;;4.72;;
40871;SDS011;26591;43.264;26.940;2023-07-22T05:39:33;11.57;;;4.50;;
40871;SDS011;26591;43.264;26.940;2023-07-22T05:41:59;10.05;;;4.00;;
40871;SDS011;26591;43.264;26.940;2023-07-22T05:44:24;5.35;;;4.10;;
40871;SDS011;26591;43.264;26.940;2023-07-22T05:46:50;9.43;;;4.15;;
40871;SDS011;26591;43.264;26.940;2023-07-22T05:49:16;9.30;;;4.03;;
40871;SDS011;26591;43.264;26.940;2023-07-22T05:51:41;8.50;;;3.90;;
40871;SDS011;26591;43.264;26.940;2023-07-22T05:54:07;5.13;;;4.00;;
40871;SDS011;26591;43.264;26.940;2023-07-22T05:56:32;8.40;;;4.65;;
40871;SDS011;26591;43.264;26.940;2023-07-22T05:58:58;8.45;;;4.40;;
40871;SDS011;26591;43.264;26.940;2023-07-22T06:01:24;10.52;;;4.30;;
40871;SDS011;26591;43.264;26.940;2023-07-22T06:03:50;12.75;;;4.50;;
40871;SDS011;26591;43.264;26.940;2023-07-22T06:06:15;7.85;;;4.30;;
40871;SDS011;26591;43.264;26.940;2023-07-22T06:08:41;8.13;;;4.22;;
40871;SDS011;26591;43.264;26.940;2023-07-22T06:11:07;10.20;;;4.25;;
40871;SDS011;26591;43.264;26.940;2023-07-22T06:13:32;6.00;;;4.20;;
40871;SDS011;26591;43.264;26.940;2023-07-22T06:15:58;9.38;;;4.40;;
40871;SDS011;26591;43.264;26.940;2023-07-22T06:18:24;12.32;;;4.40;;
40871;SDS011;26591;43.264;26.940;2023-07-22T06:20:50;7.63;;;4.30;;
40871;SDS011;26591;43.264;26.940;2023-07-22T06:23:15;8.57;;;4.30;;
40871;SDS011;26591;43.264;26.940;2023-07-22T06:25:41;8.57;;;4.68;;
40871;SDS011;26591;43.264;26.940;2023-07-22T06:28:07;5.68;;;4.18;;
40871;SDS011;26591;43.264;26.940;2023-07-22T06:30:33;9.68;;;4.68;;
40871;SDS011;26591;43.264;26.940;2023-07-22T06:32:58;10.13;;;4.30;;
40871;SDS011;26591;43.264;26.940;2023-07-22T06:35:24;14.45;;;4.32;;
40871;SDS011;26591;43.264;26.940;2023-07-22T06:37:49;8.90;;;4.55;;
40871;SDS011;26591;43.264;26.940;2023-07-22T06:40:15;7.68;;;4.45;;
40871;SDS011;26591;43.264;26.940;2023-07-22T06:42:40;9.00;;;4.15;;
40871;SDS011;26591;43.264;26.940;2023-07-22T06:45:06;13.23;;;4.47;;
40871;SDS011;26591;43.264;26.940;2023-07-22T06:47:32;9.27;;;4.40;;
40871;SDS011;26591;43.264;26.940;2023-07-22T06:49:57;10.15;;;4.20;;
40871;SDS011;26591;43.264;26.940;2023-07-22T06:52:23;10.68;;;4.35;;
40871;SDS011;26591;43.264;26.940;2023-07-22T06:54:49;8.80;;;4.13;;
40871;SDS011;26591;43.264;26.940;2023-07-22T06:57:15;9.63;;;5.22;;
40871;SDS011;26591;43.264;26.940;2023-07-22T06:59:40;12.30;;;5.22;;
40871;SDS011;26591;43.264;26.940;2023-07-22T07:02:06;7.18;;;4.22;;
40871;SDS011;26591;43.264;26.940;2023-07-22T07:04:32;9.40;;;4.50;;
40871;SDS011;26591;43.264;26.940;2023-07-22T07:06:57;9.68;;;4.85;;
40871;SDS011;26591;43.264;26.940;2023-07-22T07:09:24;9.23;;;4.80;;
40871;SDS011;26591;43.264;26.940;2023-07-22T07:11:50;14.73;;;4.47;;
40871;SDS011;26591;43.264;26.940;2023-07-22T07:14:16;12.25;;;4.50;;
40871;SDS011;26591;43.264;26.940;2023-07-22T07:16:42;8.90;;;4.20;;
40871;SDS011;26591;43.264;26.940;2023-07-22T07:19:08;8.52;;;3.70;;
40871;SDS011;26591;43.264;26.940;2023-07-22T07:21:35;11.70;;;4.25;;
40871;SDS011;26591;43.264;26.940;2023-07-22T07:24:00;8.05;;;4.38;;
40871;SDS011;26591;43.264;26.940;2023-07-22T07:26:26;14.13;;;4.22;;
40871;SDS011;26591;43.264;26.940;2023-07-22T07:28:52;7.85;;;4.20;;
40871;SDS011;26591;43.264;26.940;2023-07-22T07:31:18;4.80;;;3.80;;
40871;SDS011;26591;43.264;26.940;2023-07-22T07:33:43;8.93;;;4.15;;
40871;SDS011;26591;43.264;26.940;2023-07-22T07:36:09;8.80;;;4.03;;
40871;SDS011;26591;43.264;26.940;2023-07-22T07:38:35;6.28;;;3.80;;
40871;SDS011;26591;43.264;26.940;2023-07-22T07:41:03;10.02;;;3.85;;
40871;SDS011;26591;43.264;26.940;2023-07-22T07:43:30;21.90;;;5.22;;
40871;SDS011;26591;43.264;26.940;2023-07-22T07:48:48;6.38;;;3.65;;
40871;SDS011;26591;43.264;26.940;2023-07-22T07:51:18;7.43;;;3.65;;
40871;SDS011;26591;43.264;26.940;2023-07-22T07:53:45;18.63;;;4.07;;
40871;SDS011;26591;43.264;26.940;2023-07-22T07:56:15;15.10;;;4.10;;
40871;SDS011;26591;43.264;26.940;2023-07-22T07:58:43;11.70;;;3.80;;
40871;SDS011;26591;43.264;26.940;2023-07-22T08:01:10;7.32;;;3.75;;
40871;SDS011;26591;43.264;26.940;2023-07-22T08:03:37;11.60;;;3.63;;
40871;SDS011;26591;43.264;26.940;2023-07-22T08:06:03;12.05;;;4.25;;
40871;SDS011;26591;43.264;26.940;2023-07-22T08:08:29;10.88;;;3.20;;
40871;SDS011;26591;43.264;26.940;2023-07-22T08:11:13;12.90;;;3.25;;
40871;SDS011;26591;43.264;26.940;2023-07-22T08:13:40;8.13;;;3.45;;
40871;SDS011;26591;43.264;26.940;2023-07-22T08:16:07;9.40;;;3.28;;
40871;SDS011;26591;43.264;26.940;2023-07-22T08:18:34;12.15;;;3.85;;
40871;SDS011;26591;43.264;26.940;2023-07-22T08:21:01;8.27;;;3.05;;
40871;SDS011;26591;43.264;26.940;2023-07-22T08:23:28;10.70;;;3.05;;
40871;SDS011;26591;43.264;26.940;2023-07-22T08:25:54;13.50;;;3.65;;
40871;SDS011;26591;43.264;26.940;2023-07-22T08:28:19;12.02;;;3.50;;
40871;SDS011;26591;43.264;26.940;2023-07-22T08:30:45;10.50;;;3.70;;
40871;SDS011;26591;43.264;26.940;2023-07-22T08:33:13;12.60;;;3.88;;
40871;SDS011;26591;43.264;26.940;2023-07-22T08:35:40;13.40;;;3.25;;
40871;SDS011;26591;43.264;26.940;2023-07-22T08:38:06;9.73;;;3.85;;
40871;SDS011;26591;43.264;26.940;2023-07-22T08:40:33;11.63;;;3.60;;
40871;SDS011;26591;43.264;26.940;2023-07-22T08:43:03;10.23;;;3.83;;
40871;SDS011;26591;43.264;26.940;2023-07-22T08:45:31;12.10;;;3.60;;
40871;SDS011;26591;43.264;26.940;2023-07-22T08:50:29;19.20;;;3.95;;
40871;SDS011;26591;43.264;26.940;2023-07-22T08:52:59;11.63;;;3.53;;
40871;SDS011;26591;43.264;26.940;2023-07-22T08:55:26;9.32;;;3.38;;
40871;SDS011;26591;43.264;26.940;2023-07-22T08:57:52;11.10;;;3.70;;
40871;SDS011;26591;43.264;26.940;2023-07-22T09:00:19;9.73;;;3.88;;
40871;SDS011;26591;43.264;26.940;2023-07-22T09:02:45;11.23;;;3.17;;
40871;SDS011;26591;43.264;26.940;2023-07-22T09:05:11;14.85;;;3.22;;
40871;SDS011;26591;43.264;26.940;2023-07-22T09:07:37;12.85;;;2.80;;
40871;SDS011;26591;43.264;26.940;2023-07-22T09:10:04;6.68;;;3.40;;
40871;SDS011;26591;43.264;26.940;2023-07-22T09:15:04;8.73;;;3.40;;
40871;SDS011;26591;43.264;26.940;2023-07-22T09:17:35;13.25;;;3.05;;
40871;SDS011;26591;43.264;26.940;2023-07-22T09:20:02;13.07;;;3.03;;
40871;SDS011;26591;43.264;26.940;2023-07-22T09:22:28;10.68;;;3.10;;
40871;SDS011;26591;43.264;26.940;2023-07-22T09:25:11;14.05;;;5.68;;
40871;SDS011;26591;43.264;26.940;2023-07-22T09:27:48;14.20;;;3.33;;
40871;SDS011;26591;43.264;26.940;2023-07-22T09:30:32;4.97;;;2.47;;
40871;SDS011;26591;43.264;26.940;2023-07-22T09:33:00;9.55;;;2.75;;
40871;SDS011;26591;43.264;26.940;2023-07-22T09:35:27;7.43;;;2.53;;
40871;SDS011;26591;43.264;26.940;2023-07-22T09:37:55;12.53;;;3.20;;
40871;SDS011;26591;43.264;26.940;2023-07-22T09:40:22;6.50;;;2.30;;
40871;SDS011;26591;43.264;26.940;2023-07-22T09:42:51;11.93;;;3.08;;
40871;SDS011;26591;43.264;26.940;2023-07-22T09:45:18;9.48;;;3.08;;
40871;SDS011;26591;43.264;26.940;2023-07-22T09:47:48;16.23;;;2.80;;
40871;SDS011;26591;43.264;26.940;2023-07-22T09:50:16;9.48;;;2.92;;
40871;SDS011;26591;43.264;26.940;2023-07-22T09:52:50;8.95;;;2.78;;
40871;SDS011;26591;43.264;26.940;2023-07-22T09:55:18;9.75;;;2.70;;
40871;SDS011;26591;43.264;26.940;2023-07-22T09:57:50;13.57;;;3.47;;
40871;SDS011;26591;43.264;26.940;2023-07-22T10:00:18;10.88;;;3.08;;
40871;SDS011;26591;43.264;26.940;2023-07-22T10:02:47;8.98;;;2.70;;
40871;SDS011;26591;43.264;26.940;2023-07-22T10:05:18;12.00;;;2.75;;
40871;SDS011;26591;43.264;26.940;2023-07-22T10:07:51;12.43;;;3.30;;
40871;SDS011;26591;43.264;26.940;2023-07-22T10:10:19;12.77;;;2.90;;
40871;SDS011;26591;43.264;26.940;2023-07-22T10:12:49;8.45;;;2.65;;
40871;SDS011;26591;43.264;26.940;2023-07-22T10:15:14;10.52;;;2.75;;
40871;SDS011;26591;43.264;26.940;2023-07-22T10:17:42;13.85;;;3.30;;
40871;SDS011;26591;43.264;26.940;2023-07-22T10:20:09;10.07;;;2.80;;
40871;SDS011;26591;43.264;26.940;2023-07-22T10:22:40;6.93;;;3.33;;
40871;SDS011;26591;43.264;26.940;2023-07-22T10:25:10;12.57;;;3.80;;
40871;SDS011;26591;43.264;26.940;2023-07-22T10:27:46;12.90;;;3.53;;
40871;SDS011;26591;43.264;26.940;2023-07-22T10:30:13;15.07;;;3.28;;
40871;SDS011;26591;43.264;26.940;2023-07-22T10:32:49;7.13;;;2.40;;
40871;SDS011;26591;43.264;26.940;2023-07-22T10:35:21;8.00;;;3.10;;
40871;SDS011;26591;43.264;26.940;2023-07-22T10:40:51;12.80;;;3.05;;
40871;SDS011;26591;43.264;26.940;2023-07-22T10:43:18;8.15;;;3.05;;
40871;SDS011;26591;43.264;26.940;2023-07-22T10:46:10;15.18;;;3.78;;
40871;SDS011;26591;43.264;26.940;2023-07-22T10:48:38;9.93;;;3.45;;
40871;SDS011;26591;43.264;26.940;2023-07-22T10:51:05;13.18;;;3.10;;
40871;SDS011;26591;43.264;26.940;2023-07-22T10:53:32;9.50;;;3.45;;
40871;SDS011;26591;43.264;26.940;2023-07-22T11:01:21;8.43;;;3.95;;
40871;SDS011;26591;43.264;26.940;2023-07-22T11:06:36;9.38;;;3.05;;
40871;SDS011;26591;43.264;26.940;2023-07-22T11:11:55;12.43;;;3.70;;
40871;SDS011;26591;43.264;26.940;2023-07-22T11:14:27;8.63;;;3.30;;
40871;SDS011;26591;43.264;26.940;2023-07-22T11:17:01;10.88;;;3.20;;
40871;SDS011;26591;43.264;26.940;2023-07-22T11:19:32;11.00;;;3.13;;
40871;SDS011;26591;43.264;26.940;2023-07-22T11:21:58;9.80;;;3.50;;
40871;SDS011;26591;43.264;26.940;2023-07-22T11:24:24;8.20;;;3.28;;
40871;SDS011;26591;43.264;26.940;2023-07-22T11:26:50;13.93;;;4.30;;
40871;SDS011;26591;43.264;26.940;2023-07-22T11:29:18;12.90;;;3.17;;
40871;SDS011;26591;43.264;26.940;2023-07-22T11:31:45;7.10;;;2.70;;
40871;SDS011;26591;43.264;26.940;2023-07-22T11:34:13;10.98;;;3.15;;
40871;SDS011;26591;43.264;26.940;2023-07-22T11:36:40;9.95;;;3.15;;
40871;SDS011;26591;43.264;26.940;2023-07-22T11:39:13;7.93;;;3.00;;
40871;SDS011;26591;43.264;26.940;2023-07-22T11:41:41;16.98;;;3.22;;
40871;SDS011;26591;43.264;26.940;2023-07-22T11:44:08;11.30;;;3.15;;
40871;SDS011;26591;43.264;26.940;2023-07-22T11:46:56;10.68;;;3.25;;
40871;SDS011;26591;43.264;26.940;2023-07-22T11:51:50;7.20;;;2.80;;
40871;SDS011;26591;43.264;26.940;2023-07-22T11:54:20;6.65;;;2.88;;
40871;SDS011;26591;43.264;26.940;2023-07-22T11:56:47;11.70;;;3.35;;
40871;SDS011;26591;43.264;26.940;2023-07-22T11:59:13;9.95;;;3.08;;
40871;SDS011;26591;43.264;26.940;2023-07-22T12:01:39;15.07;;;3.08;;
40871;SDS011;26591;43.264;26.940;2023-07-22T12:04:09;11.85;;;2.90;;
40871;SDS011;26591;43.264;26.940;2023-07-22T12:06:36;9.60;;;3.40;;
40871;SDS011;26591;43.264;26.940;2023-07-22T12:09:02;6.85;;;3.00;;
40871;SDS011;26591;43.264;26.940;2023-07-22T12:11:27;7.10;;;2.55;;
40871;SDS011;26591;43.264;26.940;2023-07-22T12:14:04;9.13;;;3.05;;
40871;SDS011;26591;43.264;26.940;2023-07-22T12:16:38;9.15;;;3.55;;
40871;SDS011;26591;43.264;26.940;2023-07-22T12:19:05;9.80;;;3.60;;
40871;SDS011;26591;43.264;26.940;2023-07-22T12:21:31;8.48;;;2.90;;
40871;SDS011;26591;43.264;26.940;2023-07-22T12:23:57;12.82;;;3.75;;
40871;SDS011;26591;43.264;26.940;2023-07-22T12:26:23;13.15;;;2.92;;
40871;SDS011;26591;43.264;26.940;2023-07-22T12:28:48;8.15;;;3.63;;
40871;SDS011;26591;43.264;26.940;2023-07-22T12:31:14;10.63;;;3.47;;
40871;SDS011;26591;43.264;26.940;2023-07-22T12:33:39;13.73;;;3.30;;
40871;SDS011;26591;43.264;26.940;2023-07-22T12:36:05;12.35;;;2.78;;
40871;SDS011;26591;43.264;26.940;2023-07-22T12:38:31;12.50;;;3.70;;
40871;SDS011;26591;43.264;26.940;2023-07-22T12:40:57;10.00;;;2.67;;
40871;SDS011;26591;43.264;26.940;2023-07-22T12:43:22;18.60;;;3.03;;
40871;SDS011;26591;43.264;26.940;2023-07-22T12:45:48;13.13;;;2.97;;
40871;SDS011;26591;43.264;26.940;2023-07-22T12:48:13;11.70;;;3.05;;
40871;SDS011;26591;43.264;26.940;2023-07-22T12:50:39;14.73;;;3.35;;
40871;SDS011;26591;43.264;26.940;2023-07-22T12:53:04;9.63;;;3.33;;
40871;SDS011;26591;43.264;26.940;2023-07-22T12:55:30;10.75;;;3.03;;
40871;SDS011;26591;43.264;26.940;2023-07-22T12:57:55;13.10;;;3.50;;
40871;SDS011;26591;43.264;26.940;2023-07-22T13:00:21;16.33;;;3.63;;
40871;SDS011;26591;43.264;26.940;2023-07-22T13:02:46;15.43;;;3.75;;
40871;SDS011;26591;43.264;26.940;2023-07-22T13:05:13;15.68;;;3.83;;
40871;SDS011;26591;43.264;26.940;2023-07-22T13:07:38;16.25;;;3.47;;
40871;SDS011;26591;43.264;26.940;2023-07-22T13:10:06;10.93;;;2.90;;
40871;SDS011;26591;43.264;26.940;2023-07-22T13:12:42;13.75;;;3.30;;
40871;SDS011;26591;43.264;26.940;2023-07-22T13:15:09;8.57;;;3.35;;
40871;SDS011;26591;43.264;26.940;2023-07-22T13:17:34;17.63;;;3.50;;
40871;SDS011;26591;43.264;26.940;2023-07-22T13:20:00;15.27;;;3.33;;
40871;SDS011;26591;43.264;26.940;2023-07-22T13:22:26;14.18;;;3.63;;
40871;SDS011;26591;43.264;26.940;2023-07-22T13:24:52;16.80;;;3.63;;
40871;SDS011;26591;43.264;26.940;2023-07-22T13:27:18;31.25;;;3.67;;
40871;SDS011;26591;43.264;26.940;2023-07-22T13:29:44;12.85;;;3.50;;
40871;SDS011;26591;43.264;26.940;2023-07-22T13:32:10;12.75;;;3.28;;
40871;SDS011;26591;43.264;26.940;2023-07-22T13:34:36;13.23;;;3.50;;
40871;SDS011;26591;43.264;26.940;2023-07-22T13:37:01;16.00;;;3.60;;
40871;SDS011;26591;43.264;26.940;2023-07-22T13:39:28;11.18;;;3.05;;
40871;SDS011;26591;43.264;26.940;2023-07-22T13:41:53;9.00;;;3.20;;
40871;SDS011;26591;43.264;26.940;2023-07-22T13:44:19;15.07;;;3.85;;
40871;SDS011;26591;43.264;26.940;2023-07-22T13:46:44;8.65;;;3.33;;
40871;SDS011;26591;43.264;26.940;2023-07-22T13:49:10;12.48;;;3.20;;
40871;SDS011;26591;43.264;26.940;2023-07-22T13:51:36;10.98;;;3.60;;
40871;SDS011;26591;43.264;26.940;2023-07-22T13:54:02;15.05;;;3.33;;
40871;SDS011;26591;43.264;26.940;2023-07-22T13:56:28;13.23;;;2.90;;
40871;SDS011;26591;43.264;26.940;2023-07-22T13:58:54;9.55;;;2.95;;
40871;SDS011;26591;43.264;26.940;2023-07-22T14:01:24;16.63;;;3.45;;
40871;SDS011;26591;43.264;26.940;2023-07-22T14:03:49;8.60;;;2.65;;
40871;SDS011;26591;43.264;26.940;2023-07-22T14:06:15;13.02;;;3.22;;
40871;SDS011;26591;43.264;26.940;2023-07-22T14:08:41;11.07;;;3.53;;
40871;SDS011;26591;43.264;26.940;2023-07-22T14:11:07;11.43;;;3.60;;
40871;SDS011;26591;43.264;26.940;2023-07-22T14:13:33;12.68;;;3.35;;
40871;SDS011;26591;43.264;26.940;2023-07-22T14:15:59;13.88;;;3.35;;
40871;SDS011;26591;43.264;26.940;2023-07-22T14:18:25;15.23;;;3.25;;
40871;SDS011;26591;43.264;26.940;2023-07-22T14:20:51;10.30;;;3.03;;
40871;SDS011;26591;43.264;26.940;2023-07-22T14:23:16;13.25;;;3.03;;
40871;SDS011;26591;43.264;26.940;2023-07-22T14:25:42;11.10;;;3.10;;
40871;SDS011;26591;43.264;26.940;2023-07-22T14:28:07;12.13;;;3.35;;
40871;SDS011;26591;43.264;26.940;2023-07-22T14:30:33;10.30;;;3.30;;
40871;SDS011;26591;43.264;26.940;2023-07-22T14:32:58;17.48;;;3.42;;
40871;SDS011;26591;43.264;26.940;2023-07-22T14:35:24;11.32;;;3.13;;
40871;SDS011;26591;43.264;26.940;2023-07-22T14:37:50;12.27;;;3.50;;
40871;SDS011;26591;43.264;26.940;2023-07-22T14:40:16;11.10;;;3.28;;
40871;SDS011;26591;43.264;26.940;2023-07-22T14:42:41;12.93;;;3.08;;
40871;SDS011;26591;43.264;26.940;2023-07-22T14:45:07;14.63;;;3.70;;
40871;SDS011;26591;43.264;26.940;2023-07-22T14:47:33;11.35;;;3.63;;
40871;SDS011;26591;43.264;26.940;2023-07-22T14:50:00;14.65;;;3.50;;